Heydar Aliyev — 9HFS7 — position and weather

sailwx.info

Track history (hours):
 
Tides and Currents Weather Stations Pressure Air Temp Water Temp Dewpoint Dewpoint Depression Visibility Wind Speed Wind Dir Waves Ship Positions

Heydar Aliyev

Last reported at 2017-Jan-15 00:33 UTC. Time now 2017-Jan-20 12:04 UTC.
Position N 27°31' W 015°21'.

Length 274 m; draft 9.3 m.

Type: Tanker. MMSI: 215213000.

Date/timePositionNaut miles runAvg speedWind from/ knotsBaromVisibWave heightAir tempDewpointWater temp
2017-Jan-15 00:33N 27°31' W 015°21'1212.4
2017-Jan-14 23:33N 27°41' W 015°13'1312.7
2017-Jan-14 22:33N 27°52' W 015°06'1312.7
2017-Jan-14 21:33N 28°04' W 015°02'1312.9
2017-Jan-14 20:33N 28°16' W 014°57'1312.9
2017-Jan-14 19:33N 28°28' W 014°50'1312.9
2017-Jan-14 18:33N 28°40' W 014°44'1312.8
2017-Jan-14 17:33N 28°51' W 014°37'63012.1
2017-Jan-12 13:33N 35°59' W 005°30'8 7.8
2017-Jan-12 12:33N 36°06' W 005°24'1 1.1
2017-Jan-12 11:33N 36°04' W 005°24'1 0.6
2017-Jan-12 10:33N 36°04' W 005°23'2 1.5
2017-Jan-12 09:33N 36°05' W 005°24'1 0.7
2017-Jan-12 08:33N 36°05' W 005°23'5 4.5
2017-Jan-12 07:33N 36°03' W 005°18'8 7.4
2017-Jan-12 06:32N 36°05' W 005°08'  
Track history (hours):
 
Tides and Currents Weather Stations Pressure Air Temp Water Temp Dewpoint Dewpoint Depression Visibility Wind Speed Wind Dir Waves Ship Positions

Heydar Aliyev

Last reported at 2017-Jan-15 00:33 UTC. Time now 2017-Jan-20 12:04 UTC.
Position N 27°31' W 015°21'.

Length 274 m; draft 9.3 m.

Type: Tanker. MMSI: 215213000.

Date/timePositionNaut miles runAvg speedWind from/ knotsBaromVisibWave heightAir tempDewpointWater temp
2017-Jan-15 00:33N 27°31' W 015°21'1212.4
2017-Jan-14 23:33N 27°41' W 015°13'1312.7
2017-Jan-14 22:33N 27°52' W 015°06'1312.7
2017-Jan-14 21:33N 28°04' W 015°02'1312.9
2017-Jan-14 20:33N 28°16' W 014°57'1312.9
2017-Jan-14 19:33N 28°28' W 014°50'1312.9
2017-Jan-14 18:33N 28°40' W 014°44'1312.8
2017-Jan-14 17:33N 28°51' W 014°37'63012.1
2017-Jan-12 13:33N 35°59' W 005°30'8 7.8
2017-Jan-12 12:33N 36°06' W 005°24'1 1.1
2017-Jan-12 11:33N 36°04' W 005°24'1 0.6
2017-Jan-12 10:33N 36°04' W 005°23'2 1.5
2017-Jan-12 09:33N 36°05' W 005°24'1 0.7
2017-Jan-12 08:33N 36°05' W 005°23'5 4.5
2017-Jan-12 07:33N 36°03' W 005°18'8 7.4
2017-Jan-12 06:32N 36°05' W 005°08'  

Dump ship's entire track history